sensor_id;sensor_type;location;lat;lon;timestamp;P1;durP1;ratioP1;P2;durP2;ratioP2
47239;SDS011;32978;53.586;10.052;2023-12-28T00:02:44;9.38;;;8.57;;
47239;SDS011;32978;53.586;10.052;2023-12-28T00:07:41;7.85;;;7.05;;
47239;SDS011;32978;53.586;10.052;2023-12-28T00:12:37;8.65;;;7.88;;
47239;SDS011;32978;53.586;10.052;2023-12-28T00:17:34;7.38;;;6.78;;
47239;SDS011;32978;53.586;10.052;2023-12-28T00:22:30;12.02;;;7.80;;
47239;SDS011;32978;53.586;10.052;2023-12-28T00:27:27;8.23;;;6.97;;
47239;SDS011;32978;53.586;10.052;2023-12-28T00:32:24;7.97;;;7.28;;
47239;SDS011;32978;53.586;10.052;2023-12-28T00:43:15;11.10;;;9.95;;
47239;SDS011;32978;53.586;10.052;2023-12-28T00:48:12;10.25;;;9.55;;
47239;SDS011;32978;53.586;10.052;2023-12-28T00:53:09;11.35;;;10.25;;
47239;SDS011;32978;53.586;10.052;2023-12-28T00:58:05;11.07;;;10.25;;
47239;SDS011;32978;53.586;10.052;2023-12-28T01:03:02;10.88;;;10.07;;
47239;SDS011;32978;53.586;10.052;2023-12-28T01:07:59;12.23;;;10.43;;
47239;SDS011;32978;53.586;10.052;2023-12-28T01:12:56;11.60;;;10.32;;
47239;SDS011;32978;53.586;10.052;2023-12-28T01:17:53;10.77;;;9.43;;
47239;SDS011;32978;53.586;10.052;2023-12-28T01:22:49;10.75;;;9.80;;
47239;SDS011;32978;53.586;10.052;2023-12-28T01:27:46;11.25;;;10.38;;
47239;SDS011;32978;53.586;10.052;2023-12-28T01:32:43;11.77;;;10.88;;
47239;SDS011;32978;53.586;10.052;2023-12-28T01:37:40;11.30;;;10.40;;
47239;SDS011;32978;53.586;10.052;2023-12-28T01:42:37;11.23;;;10.40;;
47239;SDS011;32978;53.586;10.052;2023-12-28T01:47:34;10.27;;;9.57;;
47239;SDS011;32978;53.586;10.052;2023-12-28T01:52:30;11.77;;;10.77;;
47239;SDS011;32978;53.586;10.052;2023-12-28T01:57:27;10.65;;;9.90;;
47239;SDS011;32978;53.586;10.052;2023-12-28T02:02:24;10.30;;;9.48;;
47239;SDS011;32978;53.586;10.052;2023-12-28T02:07:20;10.95;;;9.95;;
47239;SDS011;32978;53.586;10.052;2023-12-28T02:12:18;11.05;;;10.10;;
47239;SDS011;32978;53.586;10.052;2023-12-28T02:18:17;11.73;;;10.80;;
47239;SDS011;32978;53.586;10.052;2023-12-28T02:22:53;10.55;;;9.70;;
47239;SDS011;32978;53.586;10.052;2023-12-28T02:27:50;10.90;;;9.98;;
47239;SDS011;32978;53.586;10.052;2023-12-28T02:33:07;11.40;;;10.35;;
47239;SDS011;32978;53.586;10.052;2023-12-28T02:38:13;13.00;;;10.00;;
47239;SDS011;32978;53.586;10.052;2023-12-28T02:43:12;11.35;;;10.45;;
47239;SDS011;32978;53.586;10.052;2023-12-28T02:48:09;11.38;;;10.48;;
47239;SDS011;32978;53.586;10.052;2023-12-28T02:53:05;11.80;;;10.90;;
47239;SDS011;32978;53.586;10.052;2023-12-28T02:58:02;12.38;;;11.23;;
47239;SDS011;32978;53.586;10.052;2023-12-28T03:02:59;10.75;;;10.00;;
47239;SDS011;32978;53.586;10.052;2023-12-28T03:07:56;11.38;;;10.48;;
47239;SDS011;32978;53.586;10.052;2023-12-28T03:12:55;11.55;;;10.60;;
47239;SDS011;32978;53.586;10.052;2023-12-28T03:17:52;11.50;;;10.50;;
47239;SDS011;32978;53.586;10.052;2023-12-28T03:22:49;11.85;;;10.93;;
47239;SDS011;32978;53.586;10.052;2023-12-28T03:27:45;11.00;;;10.10;;
47239;SDS011;32978;53.586;10.052;2023-12-28T03:32:42;11.05;;;10.13;;
47239;SDS011;32978;53.586;10.052;2023-12-28T03:37:38;12.55;;;10.95;;
47239;SDS011;32978;53.586;10.052;2023-12-28T03:42:35;11.65;;;10.43;;
47239;SDS011;32978;53.586;10.052;2023-12-28T03:47:32;13.35;;;12.18;;
47239;SDS011;32978;53.586;10.052;2023-12-28T03:52:29;13.98;;;10.98;;
47239;SDS011;32978;53.586;10.052;2023-12-28T03:57:26;13.30;;;11.57;;
47239;SDS011;32978;53.586;10.052;2023-12-28T04:02:23;12.25;;;11.05;;
47239;SDS011;32978;53.586;10.052;2023-12-28T04:13:33;11.57;;;10.68;;
47239;SDS011;32978;53.586;10.052;2023-12-28T04:18:55;11.37;;;10.53;;
47239;SDS011;32978;53.586;10.052;2023-12-28T04:23:52;12.65;;;11.55;;
47239;SDS011;32978;53.586;10.052;2023-12-28T04:28:49;11.88;;;10.98;;
47239;SDS011;32978;53.586;10.052;2023-12-28T04:33:46;12.18;;;11.02;;
47239;SDS011;32978;53.586;10.052;2023-12-28T04:38:42;12.48;;;11.30;;
47239;SDS011;32978;53.586;10.052;2023-12-28T04:43:39;12.23;;;11.18;;
47239;SDS011;32978;53.586;10.052;2023-12-28T04:48:36;15.43;;;11.25;;
47239;SDS011;32978;53.586;10.052;2023-12-28T04:53:33;12.00;;;11.00;;
47239;SDS011;32978;53.586;10.052;2023-12-28T04:58:30;12.82;;;11.38;;
47239;SDS011;32978;53.586;10.052;2023-12-28T05:03:27;13.75;;;12.63;;
47239;SDS011;32978;53.586;10.052;2023-12-28T05:08:23;13.63;;;12.43;;
47239;SDS011;32978;53.586;10.052;2023-12-28T05:13:20;13.63;;;12.52;;
47239;SDS011;32978;53.586;10.052;2023-12-28T05:18:16;14.18;;;12.73;;
47239;SDS011;32978;53.586;10.052;2023-12-28T05:23:14;13.63;;;12.38;;
47239;SDS011;32978;53.586;10.052;2023-12-28T05:28:10;13.93;;;12.77;;
47239;SDS011;32978;53.586;10.052;2023-12-28T05:33:07;13.27;;;12.23;;
47239;SDS011;32978;53.586;10.052;2023-12-28T05:38:04;14.13;;;12.70;;
47239;SDS011;32978;53.586;10.052;2023-12-28T05:43:01;14.25;;;12.73;;
47239;SDS011;32978;53.586;10.052;2023-12-28T05:47:57;13.30;;;12.15;;
47239;SDS011;32978;53.586;10.052;2023-12-28T05:52:54;12.80;;;11.80;;
47239;SDS011;32978;53.586;10.052;2023-12-28T05:57:51;13.15;;;12.15;;
47239;SDS011;32978;53.586;10.052;2023-12-28T06:02:48;13.27;;;12.05;;
47239;SDS011;32978;53.586;10.052;2023-12-28T06:43:00;10.27;;;9.27;;
47239;SDS011;32978;53.586;10.052;2023-12-28T06:48:47;10.45;;;9.50;;
47239;SDS011;32978;53.586;10.052;2023-12-28T07:00:10;10.93;;;9.10;;
47239;SDS011;32978;53.586;10.052;2023-12-28T07:25:25;12.65;;;8.80;;
47239;SDS011;32978;53.586;10.052;2023-12-28T07:37:56;13.07;;;9.13;;
47239;SDS011;32978;53.586;10.052;2023-12-28T07:44:15;12.65;;;9.18;;
47239;SDS011;32978;53.586;10.052;2023-12-28T08:22:25;9.68;;;8.10;;
47239;SDS011;32978;53.586;10.052;2023-12-28T09:30:17;8.88;;;7.38;;
47239;SDS011;32978;53.586;10.052;2023-12-28T11:14:27;13.95;;;7.90;;
47239;SDS011;32978;53.586;10.052;2023-12-28T12:42:39;18.10;;;7.65;;
47239;SDS011;32978;53.586;10.052;2023-12-28T12:48:32;19.00;;;8.30;;
47239;SDS011;32978;53.586;10.052;2023-12-28T12:54:32;14.00;;;7.63;;
47239;SDS011;32978;53.586;10.052;2023-12-28T12:59:54;17.23;;;8.40;;
47239;SDS011;32978;53.586;10.052;2023-12-28T13:06:02;12.15;;;8.20;;
47239;SDS011;32978;53.586;10.052;2023-12-28T13:11:16;11.77;;;7.80;;
47239;SDS011;32978;53.586;10.052;2023-12-28T14:00:04;14.38;;;8.25;;
47239;SDS011;32978;53.586;10.052;2023-12-28T14:05:18;16.15;;;9.10;;
47239;SDS011;32978;53.586;10.052;2023-12-28T15:11:01;24.15;;;9.85;;
47239;SDS011;32978;53.586;10.052;2023-12-28T15:35:11;13.63;;;8.88;;
47239;SDS011;32978;53.586;10.052;2023-12-28T15:54:49;15.75;;;9.90;;
47239;SDS011;32978;53.586;10.052;2023-12-28T16:23:53;14.90;;;9.67;;
47239;SDS011;32978;53.586;10.052;2023-12-28T16:53:52;13.45;;;10.32;;
47239;SDS011;32978;53.586;10.052;2023-12-28T17:33:13;17.60;;;9.50;;
47239;SDS011;32978;53.586;10.052;2023-12-28T18:31:24;13.95;;;9.60;;
47239;SDS011;32978;53.586;10.052;2023-12-28T18:50:28;15.57;;;9.60;;
47239;SDS011;32978;53.586;10.052;2023-12-28T18:56:32;13.18;;;9.02;;
47239;SDS011;32978;53.586;10.052;2023-12-28T19:19:06;20.10;;;9.90;;
47239;SDS011;32978;53.586;10.052;2023-12-28T21:08:07;15.63;;;8.68;;
47239;SDS011;32978;53.586;10.052;2023-12-28T21:13:04;11.27;;;8.07;;
47239;SDS011;32978;53.586;10.052;2023-12-28T21:18:01;11.60;;;8.45;;
47239;SDS011;32978;53.586;10.052;2023-12-28T21:23:14;11.10;;;8.73;;
47239;SDS011;32978;53.586;10.052;2023-12-28T21:28:12;13.20;;;8.55;;
47239;SDS011;32978;53.586;10.052;2023-12-28T21:33:08;11.85;;;8.75;;
47239;SDS011;32978;53.586;10.052;2023-12-28T21:38:05;20.05;;;9.13;;
47239;SDS011;32978;53.586;10.052;2023-12-28T21:43:03;17.08;;;8.70;;
47239;SDS011;32978;53.586;10.052;2023-12-28T21:48:01;11.70;;;8.38;;
47239;SDS011;32978;53.586;10.052;2023-12-28T21:52:57;11.10;;;7.72;;
47239;SDS011;32978;53.586;10.052;2023-12-28T21:57:54;14.23;;;8.48;;
47239;SDS011;32978;53.586;10.052;2023-12-28T22:02:50;14.75;;;8.45;;
47239;SDS011;32978;53.586;10.052;2023-12-28T22:13:15;14.82;;;8.20;;
47239;SDS011;32978;53.586;10.052;2023-12-28T22:18:11;11.38;;;7.93;;
47239;SDS011;32978;53.586;10.052;2023-12-28T22:23:08;12.50;;;8.13;;
47239;SDS011;32978;53.586;10.052;2023-12-28T22:28:05;11.43;;;7.35;;
47239;SDS011;32978;53.586;10.052;2023-12-28T22:33:01;14.48;;;8.45;;
47239;SDS011;32978;53.586;10.052;2023-12-28T22:37:59;17.58;;;9.07;;
47239;SDS011;32978;53.586;10.052;2023-12-28T22:42:56;13.38;;;9.07;;
47239;SDS011;32978;53.586;10.052;2023-12-28T22:47:52;10.25;;;8.90;;
47239;SDS011;32978;53.586;10.052;2023-12-28T22:52:49;15.18;;;9.77;;
47239;SDS011;32978;53.586;10.052;2023-12-28T22:57:46;12.88;;;8.75;;
47239;SDS011;32978;53.586;10.052;2023-12-28T23:02:42;9.63;;;8.32;;
47239;SDS011;32978;53.586;10.052;2023-12-28T23:24:18;15.68;;;8.40;;
47239;SDS011;32978;53.586;10.052;2023-12-28T23:29:49;14.80;;;8.40;;
47239;SDS011;32978;53.586;10.052;2023-12-28T23:34:39;9.75;;;8.35;;
47239;SDS011;32978;53.586;10.052;2023-12-28T23:39:36;14.23;;;8.82;;
47239;SDS011;32978;53.586;10.052;2023-12-28T23:44:32;14.57;;;9.60;;
47239;SDS011;32978;53.586;10.052;2023-12-28T23:49:29;15.68;;;10.38;;
47239;SDS011;32978;53.586;10.052;2023-12-28T23:54:30;11.25;;;9.05;;
47239;SDS011;32978;53.586;10.052;2023-12-28T23:59:26;10.93;;;8.15;;
